sensor_id;sensor_type;location;lat;lon;timestamp;temperature;humidity
480;DHT22;226;48.606;9.096;2024-02-23T00:01:19;5.80;59.90
480;DHT22;226;48.606;9.096;2024-02-23T00:03:47;5.80;61.00
480;DHT22;226;48.606;9.096;2024-02-23T00:06:15;5.90;61.10
480;DHT22;226;48.606;9.096;2024-02-23T00:08:43;5.90;61.10
480;DHT22;226;48.606;9.096;2024-02-23T00:11:12;5.90;60.80
480;DHT22;226;48.606;9.096;2024-02-23T00:13:40;5.90;57.60
480;DHT22;226;48.606;9.096;2024-02-23T00:16:08;5.90;57.70
480;DHT22;226;48.606;9.096;2024-02-23T00:18:37;5.80;60.40
480;DHT22;226;48.606;9.096;2024-02-23T00:21:06;5.90;56.70
480;DHT22;226;48.606;9.096;2024-02-23T00:23:34;5.90;58.10
480;DHT22;226;48.606;9.096;2024-02-23T00:26:03;5.90;61.80
480;DHT22;226;48.606;9.096;2024-02-23T00:28:31;6.00;62.90
480;DHT22;226;48.606;9.096;2024-02-23T00:30:59;6.00;62.80
480;DHT22;226;48.606;9.096;2024-02-23T00:33:27;6.00;57.40
480;DHT22;226;48.606;9.096;2024-02-23T00:35:57;6.00;57.20
480;DHT22;226;48.606;9.096;2024-02-23T00:38:25;6.00;58.00
480;DHT22;226;48.606;9.096;2024-02-23T00:40:53;6.00;59.00
480;DHT22;226;48.606;9.096;2024-02-23T00:43:21;6.00;58.70
480;DHT22;226;48.606;9.096;2024-02-23T00:45:50;5.90;60.10
480;DHT22;226;48.606;9.096;2024-02-23T00:48:18;5.90;60.20
480;DHT22;226;48.606;9.096;2024-02-23T00:50:46;6.00;60.50
480;DHT22;226;48.606;9.096;2024-02-23T00:53:16;6.00;60.10
480;DHT22;226;48.606;9.096;2024-02-23T00:55:44;6.00;62.30
480;DHT22;226;48.606;9.096;2024-02-23T00:58:13;6.00;58.60
480;DHT22;226;48.606;9.096;2024-02-23T01:00:42;6.00;58.70
480;DHT22;226;48.606;9.096;2024-02-23T01:03:10;5.90;60.00
480;DHT22;226;48.606;9.096;2024-02-23T01:05:39;5.90;60.20
480;DHT22;226;48.606;9.096;2024-02-23T01:08:09;5.90;61.10
480;DHT22;226;48.606;9.096;2024-02-23T01:10:39;5.90;60.10
480;DHT22;226;48.606;9.096;2024-02-23T01:13:07;5.90;59.10
480;DHT22;226;48.606;9.096;2024-02-23T01:15:35;5.90;56.30
480;DHT22;226;48.606;9.096;2024-02-23T01:18:04;5.80;54.80
480;DHT22;226;48.606;9.096;2024-02-23T01:20:33;5.70;56.90
480;DHT22;226;48.606;9.096;2024-02-23T01:23:01;5.70;57.80
480;DHT22;226;48.606;9.096;2024-02-23T01:25:29;5.80;59.10
480;DHT22;226;48.606;9.096;2024-02-23T01:27:59;5.80;60.50
480;DHT22;226;48.606;9.096;2024-02-23T01:30:27;5.80;59.80
480;DHT22;226;48.606;9.096;2024-02-23T01:32:55;5.80;56.20
480;DHT22;226;48.606;9.096;2024-02-23T01:35:23;5.70;58.60
480;DHT22;226;48.606;9.096;2024-02-23T01:37:52;5.70;59.40
480;DHT22;226;48.606;9.096;2024-02-23T01:40:21;5.60;59.50
480;DHT22;226;48.606;9.096;2024-02-23T01:42:49;5.60;60.10
480;DHT22;226;48.606;9.096;2024-02-23T01:45:18;5.60;59.40
480;DHT22;226;48.606;9.096;2024-02-23T01:47:46;5.40;59.30
480;DHT22;226;48.606;9.096;2024-02-23T01:50:15;5.40;60.10
480;DHT22;226;48.606;9.096;2024-02-23T01:52:43;5.40;63.40
480;DHT22;226;48.606;9.096;2024-02-23T01:55:11;5.30;60.50
480;DHT22;226;48.606;9.096;2024-02-23T01:57:40;5.20;61.90
480;DHT22;226;48.606;9.096;2024-02-23T02:00:18;5.20;61.10
480;DHT22;226;48.606;9.096;2024-02-23T02:02:48;5.20;62.30
480;DHT22;226;48.606;9.096;2024-02-23T02:05:16;5.20;61.70
480;DHT22;226;48.606;9.096;2024-02-23T02:07:47;5.20;60.50
480;DHT22;226;48.606;9.096;2024-02-23T02:10:15;5.10;58.90
480;DHT22;226;48.606;9.096;2024-02-23T02:12:44;5.10;60.40
480;DHT22;226;48.606;9.096;2024-02-23T02:15:12;5.10;63.20
480;DHT22;226;48.606;9.096;2024-02-23T02:17:42;5.10;64.30
480;DHT22;226;48.606;9.096;2024-02-23T02:20:12;5.10;65.40
480;DHT22;226;48.606;9.096;2024-02-23T02:22:40;5.20;62.60
480;DHT22;226;48.606;9.096;2024-02-23T02:25:09;5.20;61.40
480;DHT22;226;48.606;9.096;2024-02-23T02:27:37;5.20;60.20
480;DHT22;226;48.606;9.096;2024-02-23T02:30:06;5.10;59.90
480;DHT22;226;48.606;9.096;2024-02-23T02:32:35;5.10;62.80
480;DHT22;226;48.606;9.096;2024-02-23T02:35:06;5.10;63.80
480;DHT22;226;48.606;9.096;2024-02-23T02:37:34;5.10;61.40
480;DHT22;226;48.606;9.096;2024-02-23T02:40:03;5.10;60.40
480;DHT22;226;48.606;9.096;2024-02-23T02:42:32;5.10;58.90
480;DHT22;226;48.606;9.096;2024-02-23T02:45:00;5.00;60.30
480;DHT22;226;48.606;9.096;2024-02-23T02:47:30;5.00;61.20
480;DHT22;226;48.606;9.096;2024-02-23T02:49:58;5.00;63.60
480;DHT22;226;48.606;9.096;2024-02-23T02:52:28;5.00;64.20
480;DHT22;226;48.606;9.096;2024-02-23T02:54:56;5.00;64.80
480;DHT22;226;48.606;9.096;2024-02-23T02:57:25;5.10;65.10
480;DHT22;226;48.606;9.096;2024-02-23T02:59:53;5.10;61.90
480;DHT22;226;48.606;9.096;2024-02-23T03:02:21;5.10;63.80
480;DHT22;226;48.606;9.096;2024-02-23T03:04:49;5.10;62.20
480;DHT22;226;48.606;9.096;2024-02-23T03:07:18;5.10;60.40
480;DHT22;226;48.606;9.096;2024-02-23T03:09:48;5.10;62.10
480;DHT22;226;48.606;9.096;2024-02-23T03:12:17;5.10;62.70
480;DHT22;226;48.606;9.096;2024-02-23T03:14:45;5.10;63.60
480;DHT22;226;48.606;9.096;2024-02-23T03:17:14;5.00;62.80
480;DHT22;226;48.606;9.096;2024-02-23T03:19:42;5.00;63.20
480;DHT22;226;48.606;9.096;2024-02-23T03:22:10;5.00;64.30
480;DHT22;226;48.606;9.096;2024-02-23T03:24:38;5.10;63.50
480;DHT22;226;48.606;9.096;2024-02-23T03:27:08;5.10;62.70
480;DHT22;226;48.606;9.096;2024-02-23T03:29:38;5.10;62.80
480;DHT22;226;48.606;9.096;2024-02-23T03:32:07;5.10;63.50
480;DHT22;226;48.606;9.096;2024-02-23T03:34:35;5.10;63.40
480;DHT22;226;48.606;9.096;2024-02-23T03:37:03;5.10;62.30
480;DHT22;226;48.606;9.096;2024-02-23T03:39:32;5.10;63.10
480;DHT22;226;48.606;9.096;2024-02-23T03:42:00;5.10;64.70
480;DHT22;226;48.606;9.096;2024-02-23T03:44:29;5.10;62.50
480;DHT22;226;48.606;9.096;2024-02-23T03:46:58;5.10;64.10
480;DHT22;226;48.606;9.096;2024-02-23T03:49:27;5.10;64.70
480;DHT22;226;48.606;9.096;2024-02-23T03:51:55;5.10;64.60
480;DHT22;226;48.606;9.096;2024-02-23T03:54:23;5.00;64.10
480;DHT22;226;48.606;9.096;2024-02-23T03:56:51;5.10;63.90
480;DHT22;226;48.606;9.096;2024-02-23T03:59:19;5.00;62.50
480;DHT22;226;48.606;9.096;2024-02-23T04:01:49;5.00;62.30
480;DHT22;226;48.606;9.096;2024-02-23T04:06:54;5.00;63.90
480;DHT22;226;48.606;9.096;2024-02-23T04:09:22;5.00;63.20
480;DHT22;226;48.606;9.096;2024-02-23T04:11:52;5.00;62.70
480;DHT22;226;48.606;9.096;2024-02-23T04:14:20;5.00;63.30
480;DHT22;226;48.606;9.096;2024-02-23T04:16:49;5.00;63.30
480;DHT22;226;48.606;9.096;2024-02-23T04:19:18;5.10;63.70
480;DHT22;226;48.606;9.096;2024-02-23T04:21:46;5.00;62.90
480;DHT22;226;48.606;9.096;2024-02-23T04:24:14;5.00;62.90
480;DHT22;226;48.606;9.096;2024-02-23T04:26:43;5.00;62.40
480;DHT22;226;48.606;9.096;2024-02-23T04:29:11;4.90;62.70
480;DHT22;226;48.606;9.096;2024-02-23T04:31:39;4.90;63.80
480;DHT22;226;48.606;9.096;2024-02-23T04:34:09;5.00;63.70
480;DHT22;226;48.606;9.096;2024-02-23T04:36:37;4.90;62.50
480;DHT22;226;48.606;9.096;2024-02-23T04:39:05;4.90;64.00
480;DHT22;226;48.606;9.096;2024-02-23T04:41:33;4.90;62.30
480;DHT22;226;48.606;9.096;2024-02-23T04:44:01;4.80;62.80
480;DHT22;226;48.606;9.096;2024-02-23T04:46:31;4.80;63.50
480;DHT22;226;48.606;9.096;2024-02-23T04:49:01;4.70;64.20
480;DHT22;226;48.606;9.096;2024-02-23T04:51:31;4.70;64.10
480;DHT22;226;48.606;9.096;2024-02-23T04:53:59;4.70;64.60
480;DHT22;226;48.606;9.096;2024-02-23T04:56:27;4.70;65.40
480;DHT22;226;48.606;9.096;2024-02-23T04:58:55;4.80;66.30
480;DHT22;226;48.606;9.096;2024-02-23T05:01:24;4.70;66.10
480;DHT22;226;48.606;9.096;2024-02-23T05:03:52;4.80;65.80
480;DHT22;226;48.606;9.096;2024-02-23T05:06:21;4.70;65.10
480;DHT22;226;48.606;9.096;2024-02-23T05:08:50;4.70;65.10
480;DHT22;226;48.606;9.096;2024-02-23T05:11:18;4.60;65.90
480;DHT22;226;48.606;9.096;2024-02-23T05:13:47;4.50;66.00
480;DHT22;226;48.606;9.096;2024-02-23T05:16:15;4.50;66.70
480;DHT22;226;48.606;9.096;2024-02-23T05:18:43;4.40;66.70
480;DHT22;226;48.606;9.096;2024-02-23T05:21:14;4.30;66.60
480;DHT22;226;48.606;9.096;2024-02-23T05:23:42;4.20;68.00
480;DHT22;226;48.606;9.096;2024-02-23T05:26:14;4.10;66.90
480;DHT22;226;48.606;9.096;2024-02-23T05:28:42;3.90;67.40
480;DHT22;226;48.606;9.096;2024-02-23T05:31:10;3.90;69.50
480;DHT22;226;48.606;9.096;2024-02-23T05:33:38;3.80;71.30
480;DHT22;226;48.606;9.096;2024-02-23T05:36:07;3.80;72.30
480;DHT22;226;48.606;9.096;2024-02-23T05:38:35;3.80;72.90
480;DHT22;226;48.606;9.096;2024-02-23T05:41:03;3.80;73.80
480;DHT22;226;48.606;9.096;2024-02-23T05:43:33;3.80;73.10
480;DHT22;226;48.606;9.096;2024-02-23T05:46:03;3.80;72.50
480;DHT22;226;48.606;9.096;2024-02-23T05:48:31;3.70;72.30
480;DHT22;226;48.606;9.096;2024-02-23T05:51:00;3.70;72.70
480;DHT22;226;48.606;9.096;2024-02-23T05:53:29;3.70;72.80
480;DHT22;226;48.606;9.096;2024-02-23T05:55:59;3.70;71.90
480;DHT22;226;48.606;9.096;2024-02-23T05:58:27;3.70;74.10
480;DHT22;226;48.606;9.096;2024-02-23T06:00:57;3.70;73.40
480;DHT22;226;48.606;9.096;2024-02-23T06:03:25;3.70;72.40
480;DHT22;226;48.606;9.096;2024-02-23T06:05:53;3.60;72.90
480;DHT22;226;48.606;9.096;2024-02-23T06:08:21;3.70;73.00
480;DHT22;226;48.606;9.096;2024-02-23T06:10:50;3.70;72.30
480;DHT22;226;48.606;9.096;2024-02-23T06:13:18;3.70;72.40
480;DHT22;226;48.606;9.096;2024-02-23T06:15:46;3.70;74.00
480;DHT22;226;48.606;9.096;2024-02-23T06:18:15;3.70;75.00
480;DHT22;226;48.606;9.096;2024-02-23T06:20:43;3.80;72.80
480;DHT22;226;48.606;9.096;2024-02-23T06:23:12;3.80;70.10
480;DHT22;226;48.606;9.096;2024-02-23T06:25:40;3.80;69.20
480;DHT22;226;48.606;9.096;2024-02-23T06:28:12;3.70;68.50
480;DHT22;226;48.606;9.096;2024-02-23T06:30:40;3.70;67.90
480;DHT22;226;48.606;9.096;2024-02-23T06:33:08;3.60;69.70
480;DHT22;226;48.606;9.096;2024-02-23T06:35:38;3.60;71.20
480;DHT22;226;48.606;9.096;2024-02-23T06:38:06;3.60;69.90
480;DHT22;226;48.606;9.096;2024-02-23T06:40:34;3.60;70.40
480;DHT22;226;48.606;9.096;2024-02-23T06:43:17;3.60;69.00
480;DHT22;226;48.606;9.096;2024-02-23T06:45:49;3.60;67.70
480;DHT22;226;48.606;9.096;2024-02-23T06:48:18;3.70;67.10
480;DHT22;226;48.606;9.096;2024-02-23T06:50:47;3.80;66.30
480;DHT22;226;48.606;9.096;2024-02-23T06:53:15;3.80;66.50
480;DHT22;226;48.606;9.096;2024-02-23T06:55:44;4.00;63.90
480;DHT22;226;48.606;9.096;2024-02-23T06:58:12;4.10;59.60
480;DHT22;226;48.606;9.096;2024-02-23T07:00:41;4.10;53.50
480;DHT22;226;48.606;9.096;2024-02-23T07:03:09;4.20;54.80
480;DHT22;226;48.606;9.096;2024-02-23T07:05:37;4.20;54.80
480;DHT22;226;48.606;9.096;2024-02-23T07:08:08;4.30;54.90
480;DHT22;226;48.606;9.096;2024-02-23T07:10:36;4.30;53.80
480;DHT22;226;48.606;9.096;2024-02-23T07:13:04;4.40;50.10
480;DHT22;226;48.606;9.096;2024-02-23T07:15:34;4.40;49.00
480;DHT22;226;48.606;9.096;2024-02-23T07:18:03;4.50;50.10
480;DHT22;226;48.606;9.096;2024-02-23T07:20:31;4.60;48.20
480;DHT22;226;48.606;9.096;2024-02-23T07:22:59;4.60;47.30
480;DHT22;226;48.606;9.096;2024-02-23T07:25:29;4.60;45.10
480;DHT22;226;48.606;9.096;2024-02-23T07:27:57;4.60;44.70
480;DHT22;226;48.606;9.096;2024-02-23T07:30:26;4.60;41.70
480;DHT22;226;48.606;9.096;2024-02-23T07:32:54;4.70;42.20
480;DHT22;226;48.606;9.096;2024-02-23T07:35:22;4.70;41.30
480;DHT22;226;48.606;9.096;2024-02-23T07:37:50;4.70;41.90
480;DHT22;226;48.606;9.096;2024-02-23T07:40:18;4.70;41.10
480;DHT22;226;48.606;9.096;2024-02-23T07:42:50;4.80;43.40
480;DHT22;226;48.606;9.096;2024-02-23T07:45:18;4.90;46.50
480;DHT22;226;48.606;9.096;2024-02-23T07:47:46;5.00;44.80
480;DHT22;226;48.606;9.096;2024-02-23T07:50:14;5.10;43.20
480;DHT22;226;48.606;9.096;2024-02-23T07:52:43;5.10;41.70
480;DHT22;226;48.606;9.096;2024-02-23T07:55:11;5.10;40.60
480;DHT22;226;48.606;9.096;2024-02-23T07:57:43;5.20;34.40
480;DHT22;226;48.606;9.096;2024-02-23T08:00:13;5.10;36.40
480;DHT22;226;48.606;9.096;2024-02-23T08:02:41;5.20;38.10
480;DHT22;226;48.606;9.096;2024-02-23T08:05:09;5.20;37.60
480;DHT22;226;48.606;9.096;2024-02-23T08:07:38;5.30;36.30
480;DHT22;226;48.606;9.096;2024-02-23T08:10:06;5.30;34.60
480;DHT22;226;48.606;9.096;2024-02-23T08:12:36;5.40;35.00
480;DHT22;226;48.606;9.096;2024-02-23T08:15:09;5.40;32.40
480;DHT22;226;48.606;9.096;2024-02-23T08:17:38;5.30;35.50
480;DHT22;226;48.606;9.096;2024-02-23T08:20:08;5.30;34.00
480;DHT22;226;48.606;9.096;2024-02-23T08:22:36;5.30;35.60
480;DHT22;226;48.606;9.096;2024-02-23T08:25:05;5.30;32.30
480;DHT22;226;48.606;9.096;2024-02-23T08:27:33;5.20;33.60
480;DHT22;226;48.606;9.096;2024-02-23T08:30:01;5.20;32.70
480;DHT22;226;48.606;9.096;2024-02-23T08:32:30;5.20;32.30
480;DHT22;226;48.606;9.096;2024-02-23T08:34:59;5.20;33.60
480;DHT22;226;48.606;9.096;2024-02-23T08:37:27;5.30;33.10
480;DHT22;226;48.606;9.096;2024-02-23T08:39:55;5.30;33.40
480;DHT22;226;48.606;9.096;2024-02-23T08:42:24;5.30;33.40
480;DHT22;226;48.606;9.096;2024-02-23T08:44:52;5.40;34.30
480;DHT22;226;48.606;9.096;2024-02-23T08:47:21;5.30;33.70
480;DHT22;226;48.606;9.096;2024-02-23T08:49:49;5.30;35.10
480;DHT22;226;48.606;9.096;2024-02-23T08:52:19;5.30;35.60
480;DHT22;226;48.606;9.096;2024-02-23T08:54:47;5.40;34.80
480;DHT22;226;48.606;9.096;2024-02-23T08:57:15;5.40;32.20
480;DHT22;226;48.606;9.096;2024-02-23T08:59:46;5.50;30.50
480;DHT22;226;48.606;9.096;2024-02-23T09:02:14;5.50;29.50
480;DHT22;226;48.606;9.096;2024-02-23T09:04:42;5.50;30.70
480;DHT22;226;48.606;9.096;2024-02-23T09:07:11;5.50;30.00
480;DHT22;226;48.606;9.096;2024-02-23T09:09:41;5.50;30.00
480;DHT22;226;48.606;9.096;2024-02-23T09:12:09;5.60;30.60
480;DHT22;226;48.606;9.096;2024-02-23T09:14:38;5.60;30.10
480;DHT22;226;48.606;9.096;2024-02-23T09:17:08;5.60;30.50
480;DHT22;226;48.606;9.096;2024-02-23T09:19:36;5.70;32.60
480;DHT22;226;48.606;9.096;2024-02-23T09:22:05;5.70;28.90
480;DHT22;226;48.606;9.096;2024-02-23T09:24:33;5.70;29.50
480;DHT22;226;48.606;9.096;2024-02-23T09:27:03;5.80;27.30
480;DHT22;226;48.606;9.096;2024-02-23T09:29:31;5.80;28.60
480;DHT22;226;48.606;9.096;2024-02-23T09:31:59;5.80;29.40
480;DHT22;226;48.606;9.096;2024-02-23T09:34:28;5.90;31.60
480;DHT22;226;48.606;9.096;2024-02-23T09:36:57;6.00;27.80
480;DHT22;226;48.606;9.096;2024-02-23T09:39:25;6.10;30.10
480;DHT22;226;48.606;9.096;2024-02-23T09:41:57;6.10;27.10
480;DHT22;226;48.606;9.096;2024-02-23T09:44:32;6.20;26.40
480;DHT22;226;48.606;9.096;2024-02-23T09:47:01;6.20;26.00
480;DHT22;226;48.606;9.096;2024-02-23T09:49:38;6.10;24.90
480;DHT22;226;48.606;9.096;2024-02-23T09:52:08;6.20;23.60
480;DHT22;226;48.606;9.096;2024-02-23T09:54:37;6.30;24.10
480;DHT22;226;48.606;9.096;2024-02-23T09:57:07;6.40;21.50
480;DHT22;226;48.606;9.096;2024-02-23T09:59:38;6.40;23.80
480;DHT22;226;48.606;9.096;2024-02-23T10:02:08;6.50;20.90
480;DHT22;226;48.606;9.096;2024-02-23T10:04:38;6.60;21.90
480;DHT22;226;48.606;9.096;2024-02-23T10:07:07;6.60;20.70
480;DHT22;226;48.606;9.096;2024-02-23T10:09:36;6.60;19.90
480;DHT22;226;48.606;9.096;2024-02-23T10:12:05;6.60;20.40
480;DHT22;226;48.606;9.096;2024-02-23T10:14:34;6.60;18.60
480;DHT22;226;48.606;9.096;2024-02-23T10:17:03;6.60;18.40
480;DHT22;226;48.606;9.096;2024-02-23T10:19:35;6.60;18.70
480;DHT22;226;48.606;9.096;2024-02-23T10:22:03;6.60;17.40
480;DHT22;226;48.606;9.096;2024-02-23T10:24:32;6.60;17.50
480;DHT22;226;48.606;9.096;2024-02-23T10:27:00;6.70;17.30
480;DHT22;226;48.606;9.096;2024-02-23T10:29:30;6.80;16.90
480;DHT22;226;48.606;9.096;2024-02-23T10:31:58;6.90;17.70
480;DHT22;226;48.606;9.096;2024-02-23T10:34:29;7.00;16.90
480;DHT22;226;48.606;9.096;2024-02-23T10:36:59;7.10;14.70
480;DHT22;226;48.606;9.096;2024-02-23T10:39:29;7.20;15.20
480;DHT22;226;48.606;9.096;2024-02-23T10:42:02;7.30;15.50
480;DHT22;226;48.606;9.096;2024-02-23T10:44:31;7.40;14.90
480;DHT22;226;48.606;9.096;2024-02-23T10:46:59;7.40;13.70
480;DHT22;226;48.606;9.096;2024-02-23T10:49:30;7.50;13.20
480;DHT22;226;48.606;9.096;2024-02-23T10:51:58;7.60;14.80
480;DHT22;226;48.606;9.096;2024-02-23T10:54:27;7.70;12.60
480;DHT22;226;48.606;9.096;2024-02-23T10:56:55;7.80;13.80
480;DHT22;226;48.606;9.096;2024-02-23T10:59:24;7.90;11.90
480;DHT22;226;48.606;9.096;2024-02-23T11:01:53;8.00;12.10
480;DHT22;226;48.606;9.096;2024-02-23T11:04:25;8.10;12.20
480;DHT22;226;48.606;9.096;2024-02-23T11:06:56;8.20;10.10
480;DHT22;226;48.606;9.096;2024-02-23T11:09:26;7.90;10.80
480;DHT22;226;48.606;9.096;2024-02-23T11:11:55;7.90;11.70
480;DHT22;226;48.606;9.096;2024-02-23T11:14:31;8.00;13.10
480;DHT22;226;48.606;9.096;2024-02-23T11:17:00;8.10;13.30
480;DHT22;226;48.606;9.096;2024-02-23T11:19:35;8.20;11.00
480;DHT22;226;48.606;9.096;2024-02-23T11:22:09;8.30;11.00
480;DHT22;226;48.606;9.096;2024-02-23T11:24:49;8.10;10.90
480;DHT22;226;48.606;9.096;2024-02-23T11:27:24;8.20;12.20
480;DHT22;226;48.606;9.096;2024-02-23T11:29:59;8.40;12.40
480;DHT22;226;48.606;9.096;2024-02-23T11:32:37;8.40;12.40
480;DHT22;226;48.606;9.096;2024-02-23T11:35:08;8.40;9.60
480;DHT22;226;48.606;9.096;2024-02-23T11:37:48;8.40;10.40
480;DHT22;226;48.606;9.096;2024-02-23T11:40:19;8.60;11.00
480;DHT22;226;48.606;9.096;2024-02-23T11:42:48;8.70;11.30
480;DHT22;226;48.606;9.096;2024-02-23T11:45:16;8.80;11.00
480;DHT22;226;48.606;9.096;2024-02-23T11:47:44;8.80;10.30
480;DHT22;226;48.606;9.096;2024-02-23T11:50:13;8.80;11.30
480;DHT22;226;48.606;9.096;2024-02-23T11:52:42;8.80;10.00
480;DHT22;226;48.606;9.096;2024-02-23T11:55:12;8.80;8.40
480;DHT22;226;48.606;9.096;2024-02-23T11:57:45;8.80;8.90
480;DHT22;226;48.606;9.096;2024-02-23T12:00:15;8.70;10.40
480;DHT22;226;48.606;9.096;2024-02-23T12:02:43;8.60;8.50
480;DHT22;226;48.606;9.096;2024-02-23T12:05:13;8.60;9.40
480;DHT22;226;48.606;9.096;2024-02-23T12:07:42;8.70;11.30
480;DHT22;226;48.606;9.096;2024-02-23T12:10:15;8.80;9.30
480;DHT22;226;48.606;9.096;2024-02-23T12:12:43;8.70;9.00
480;DHT22;226;48.606;9.096;2024-02-23T12:15:11;8.50;10.10
480;DHT22;226;48.606;9.096;2024-02-23T12:17:46;8.40;9.10
480;DHT22;226;48.606;9.096;2024-02-23T12:20:15;8.20;8.60
480;DHT22;226;48.606;9.096;2024-02-23T12:22:44;8.00;9.50
480;DHT22;226;48.606;9.096;2024-02-23T12:25:14;7.90;10.80
480;DHT22;226;48.606;9.096;2024-02-23T12:27:43;8.00;10.90
480;DHT22;226;48.606;9.096;2024-02-23T12:30:13;8.00;10.90
480;DHT22;226;48.606;9.096;2024-02-23T12:32:42;8.10;10.60
480;DHT22;226;48.606;9.096;2024-02-23T12:35:11;8.10;10.50
480;DHT22;226;48.606;9.096;2024-02-23T12:37:40;8.20;11.00
480;DHT22;226;48.606;9.096;2024-02-23T12:40:11;8.40;11.10
480;DHT22;226;48.606;9.096;2024-02-23T12:42:41;8.70;10.20
480;DHT22;226;48.606;9.096;2024-02-23T12:45:11;8.70;11.30
480;DHT22;226;48.606;9.096;2024-02-23T12:47:39;8.80;11.70
480;DHT22;226;48.606;9.096;2024-02-23T12:50:08;8.70;11.30
480;DHT22;226;48.606;9.096;2024-02-23T12:52:37;8.70;11.80
480;DHT22;226;48.606;9.096;2024-02-23T12:55:05;8.70;12.30
480;DHT22;226;48.606;9.096;2024-02-23T12:57:33;8.60;12.30
480;DHT22;226;48.606;9.096;2024-02-23T13:00:04;8.50;11.80
480;DHT22;226;48.606;9.096;2024-02-23T13:02:32;8.50;11.70
480;DHT22;226;48.606;9.096;2024-02-23T13:05:00;8.50;12.20
480;DHT22;226;48.606;9.096;2024-02-23T13:07:29;8.60;11.20
480;DHT22;226;48.606;9.096;2024-02-23T13:09:57;8.60;10.50
480;DHT22;226;48.606;9.096;2024-02-23T13:12:26;8.80;10.40
480;DHT22;226;48.606;9.096;2024-02-23T13:14:54;8.80;11.00
480;DHT22;226;48.606;9.096;2024-02-23T13:17:23;8.80;10.40
480;DHT22;226;48.606;9.096;2024-02-23T13:19:52;8.70;9.30
480;DHT22;226;48.606;9.096;2024-02-23T13:22:36;8.60;10.70
480;DHT22;226;48.606;9.096;2024-02-23T13:25:05;8.50;11.40
480;DHT22;226;48.606;9.096;2024-02-23T13:27:34;8.70;11.20
480;DHT22;226;48.606;9.096;2024-02-23T13:30:02;8.80;11.10
480;DHT22;226;48.606;9.096;2024-02-23T13:32:32;8.80;11.30
480;DHT22;226;48.606;9.096;2024-02-23T13:35:00;8.70;11.10
480;DHT22;226;48.606;9.096;2024-02-23T13:37:31;8.80;11.90
480;DHT22;226;48.606;9.096;2024-02-23T13:40:00;9.00;10.30
480;DHT22;226;48.606;9.096;2024-02-23T13:42:28;9.00;9.40
480;DHT22;226;48.606;9.096;2024-02-23T13:44:56;9.10;9.40
480;DHT22;226;48.606;9.096;2024-02-23T13:47:26;9.20;10.50
480;DHT22;226;48.606;9.096;2024-02-23T13:49:56;9.30;8.80
480;DHT22;226;48.606;9.096;2024-02-23T13:52:24;9.40;9.90
480;DHT22;226;48.606;9.096;2024-02-23T13:54:52;9.50;8.50
480;DHT22;226;48.606;9.096;2024-02-23T13:57:20;9.30;9.10
480;DHT22;226;48.606;9.096;2024-02-23T13:59:48;9.30;9.60
480;DHT22;226;48.606;9.096;2024-02-23T14:02:24;9.10;8.70
480;DHT22;226;48.606;9.096;2024-02-23T14:04:52;9.10;9.00
480;DHT22;226;48.606;9.096;2024-02-23T14:07:22;9.00;8.90
480;DHT22;226;48.606;9.096;2024-02-23T14:09:50;8.90;8.80
480;DHT22;226;48.606;9.096;2024-02-23T14:12:18;8.80;9.80
480;DHT22;226;48.606;9.096;2024-02-23T14:14:47;8.90;10.20
480;DHT22;226;48.606;9.096;2024-02-23T14:17:15;9.00;8.90
480;DHT22;226;48.606;9.096;2024-02-23T14:19:43;8.90;7.60
480;DHT22;226;48.606;9.096;2024-02-23T14:22:11;8.80;8.30
480;DHT22;226;48.606;9.096;2024-02-23T14:24:41;8.80;8.40
480;DHT22;226;48.606;9.096;2024-02-23T14:27:09;8.80;8.90
480;DHT22;226;48.606;9.096;2024-02-23T14:29:37;8.90;9.10
480;DHT22;226;48.606;9.096;2024-02-23T14:32:05;9.00;9.10
480;DHT22;226;48.606;9.096;2024-02-23T14:34:33;9.10;8.40
480;DHT22;226;48.606;9.096;2024-02-23T14:37:02;9.10;8.50
480;DHT22;226;48.606;9.096;2024-02-23T14:39:30;9.00;8.50
480;DHT22;226;48.606;9.096;2024-02-23T14:42:00;8.80;8.90
480;DHT22;226;48.606;9.096;2024-02-23T14:44:28;8.60;9.30
480;DHT22;226;48.606;9.096;2024-02-23T14:46:56;8.60;9.60
480;DHT22;226;48.606;9.096;2024-02-23T14:49:24;8.70;9.30
480;DHT22;226;48.606;9.096;2024-02-23T14:51:52;8.80;9.70
480;DHT22;226;48.606;9.096;2024-02-23T14:54:20;8.90;8.20
480;DHT22;226;48.606;9.096;2024-02-23T14:56:48;9.00;9.50
480;DHT22;226;48.606;9.096;2024-02-23T14:59:18;9.20;8.60
480;DHT22;226;48.606;9.096;2024-02-23T15:01:46;9.20;8.30
480;DHT22;226;48.606;9.096;2024-02-23T15:04:14;9.20;7.90
480;DHT22;226;48.606;9.096;2024-02-23T15:06:45;9.10;8.00
480;DHT22;226;48.606;9.096;2024-02-23T15:09:13;9.10;8.00
480;DHT22;226;48.606;9.096;2024-02-23T15:11:41;9.10;7.80
480;DHT22;226;48.606;9.096;2024-02-23T15:14:10;9.00;8.90
480;DHT22;226;48.606;9.096;2024-02-23T15:16:39;8.80;9.70
480;DHT22;226;48.606;9.096;2024-02-23T15:19:07;8.70;9.80
480;DHT22;226;48.606;9.096;2024-02-23T15:21:36;8.60;10.40
480;DHT22;226;48.606;9.096;2024-02-23T15:24:07;8.60;10.30
480;DHT22;226;48.606;9.096;2024-02-23T15:26:36;8.60;10.70
480;DHT22;226;48.606;9.096;2024-02-23T15:29:04;8.70;10.30
480;DHT22;226;48.606;9.096;2024-02-23T15:31:32;8.70;10.10
480;DHT22;226;48.606;9.096;2024-02-23T15:34:04;8.70;11.30
480;DHT22;226;48.606;9.096;2024-02-23T15:36:32;8.70;11.10
480;DHT22;226;48.606;9.096;2024-02-23T15:39:01;8.70;11.20
480;DHT22;226;48.606;9.096;2024-02-23T15:41:32;8.70;10.30
480;DHT22;226;48.606;9.096;2024-02-23T15:44:01;8.60;10.90
480;DHT22;226;48.606;9.096;2024-02-23T15:46:30;8.60;11.20
480;DHT22;226;48.606;9.096;2024-02-23T15:48:58;8.70;11.30
480;DHT22;226;48.606;9.096;2024-02-23T15:51:34;8.60;11.20
480;DHT22;226;48.606;9.096;2024-02-23T15:54:18;8.60;11.30
480;DHT22;226;48.606;9.096;2024-02-23T15:56:46;8.50;12.30
480;DHT22;226;48.606;9.096;2024-02-23T15:59:14;8.50;11.50
480;DHT22;226;48.606;9.096;2024-02-23T16:01:42;8.50;11.50
480;DHT22;226;48.606;9.096;2024-02-23T16:04:10;8.40;12.40
480;DHT22;226;48.606;9.096;2024-02-23T16:06:40;8.50;12.30
480;DHT22;226;48.606;9.096;2024-02-23T16:09:08;8.40;12.10
480;DHT22;226;48.606;9.096;2024-02-23T16:11:44;8.50;12.00
480;DHT22;226;48.606;9.096;2024-02-23T16:14:13;8.50;11.20
480;DHT22;226;48.606;9.096;2024-02-23T16:16:41;8.50;13.00
480;DHT22;226;48.606;9.096;2024-02-23T16:19:10;8.50;11.20
480;DHT22;226;48.606;9.096;2024-02-23T16:21:40;8.60;11.20
480;DHT22;226;48.606;9.096;2024-02-23T16:24:10;8.60;11.20
480;DHT22;226;48.606;9.096;2024-02-23T16:26:38;8.60;10.40
480;DHT22;226;48.606;9.096;2024-02-23T16:29:07;8.60;10.20
480;DHT22;226;48.606;9.096;2024-02-23T16:31:35;8.60;11.20
480;DHT22;226;48.606;9.096;2024-02-23T16:34:04;8.60;9.50
480;DHT22;226;48.606;9.096;2024-02-23T16:36:32;8.50;10.60
480;DHT22;226;48.606;9.096;2024-02-23T16:39:02;8.50;10.30
480;DHT22;226;48.606;9.096;2024-02-23T16:41:35;8.50;10.20
480;DHT22;226;48.606;9.096;2024-02-23T16:44:03;8.40;10.20
480;DHT22;226;48.606;9.096;2024-02-23T16:46:32;8.40;10.40
480;DHT22;226;48.606;9.096;2024-02-23T16:49:00;8.40;10.50
480;DHT22;226;48.606;9.096;2024-02-23T16:51:30;8.40;10.50
480;DHT22;226;48.606;9.096;2024-02-23T16:53:59;8.30;11.00
480;DHT22;226;48.606;9.096;2024-02-23T16:56:28;8.30;11.70
480;DHT22;226;48.606;9.096;2024-02-23T16:58:56;8.30;11.00
480;DHT22;226;48.606;9.096;2024-02-23T17:01:25;8.30;11.00
480;DHT22;226;48.606;9.096;2024-02-23T17:03:54;8.20;10.70
480;DHT22;226;48.606;9.096;2024-02-23T17:06:22;8.10;10.90
480;DHT22;226;48.606;9.096;2024-02-23T17:08:50;8.10;11.70